Time;durP1;ratioP1;P1;durP2;ratioP2;P2;SDS_P1;SDS_P2;PMS_P1;PMS_P2;Temp;Humidity;BMP_temperature;BMP_pressure;BME280_temperature;BME280_humidity;BME280_pressure;Samples;Min_cycle;Max_cycle;Signal;HPM_P1;HPM_P2
2023/10/14 00:01:36;;;;;;;7.43;3.93;;;;;;;7.32;100.00;99831.94;4898653;29;20123;-64
2023/10/14 00:04:09;;;;;;;5.07;3.47;;;;;;;7.49;100.00;99848.66;4900656;29;20040;-65
2023/10/14 00:06:38;;;;;;;6.83;3.03;;;;;;;7.40;100.00;99826.66;4912566;29;20040;-65
2023/10/14 00:09:11;;;;;;;8.40;4.07;;;;;;;7.37;100.00;99816.38;4918946;29;20044;-66
2023/10/14 00:11:40;;;;;;;7.33;3.23;;;;;;;7.30;100.00;99799.50;4917617;29;20036;-64
2023/10/14 00:14:42;;;;;;;9.15;3.80;;;;;;;7.28;100.00;99790.91;4918569;29;20043;-66
2023/10/14 00:16:57;;;;;;;10.13;3.43;;;;;;;7.25;100.00;99780.63;4916030;29;20408;-67
2023/10/14 00:19:23;;;;;;;7.53;3.37;;;;;;;7.30;100.00;99773.03;4919454;29;20051;-67
2023/10/14 00:21:49;;;;;;;12.70;3.23;;;;;;;7.32;100.00;99773.69;4918904;29;20127;-64
2023/10/14 00:24:26;;;;;;;7.00;2.80;;;;;;;7.10;100.00;99725.66;4918431;29;20036;-65
2023/10/14 00:26:53;;;;;;;8.73;2.87;;;;;;;7.32;100.00;99749.84;4918691;29;20080;-69
2023/10/14 00:29:21;;;;;;;9.17;3.73;;;;;;;7.35;100.00;99739.75;4918077;29;20504;-64
2023/10/14 00:31:50;;;;;;;9.82;4.53;;;;;;;7.38;100.00;99752.66;4917490;29;20516;-64
2023/10/14 00:34:18;;;;;;;7.95;3.72;;;;;;;7.33;100.00;99725.00;4916939;29;20419;-65
2023/10/14 00:36:44;;;;;;;9.95;3.20;;;;;;;7.35;100.00;99723.03;4918224;29;20043;-65
2023/10/14 00:39:12;;;;;;;7.33;2.67;;;;;;;7.35;100.00;99712.44;4917909;29;20052;-67
2023/10/14 00:41:42;;;;;;;8.03;3.00;;;;;;;7.27;100.00;99692.09;4918117;29;20031;-64
2023/10/14 00:44:09;;;;;;;8.00;2.43;;;;;;;7.19;100.00;99646.22;4918334;29;20036;-64
2023/10/14 00:46:36;;;;;;;13.13;3.20;;;;;;;7.37;100.00;99678.66;4916704;29;20094;-66
2023/10/14 00:49:04;;;;;;;8.07;2.40;;;;;;;7.27;100.00;99654.19;4917820;29;20084;-64
2023/10/14 00:51:34;;;;;;;10.18;2.67;;;;;;;7.37;100.00;99652.16;4917761;29;20056;-64
2023/10/14 00:54:02;;;;;;;8.90;2.80;;;;;;;7.30;100.00;99609.63;4917689;29;20071;-65
2023/10/14 00:56:31;;;;;;;6.43;2.50;;;;;;;7.39;100.00;99613.91;4917601;29;20032;-64
2023/10/14 00:58:59;;;;;;;7.38;2.90;;;;;;;7.28;100.00;99590.44;4919273;29;20040;-65
2023/10/14 01:01:31;;;;;;;;;;;;;;;7.54;100.00;99619.34;4918158;29;20111;-69
2023/10/14 01:04:05;;;;;;;12.90;4.10;;;;;;;7.29;100.00;99588.63;4917431;29;20407;-66
2023/10/14 01:06:53;;;;;;;11.63;4.17;;;;;;;7.35;100.00;99585.28;4917390;29;20104;-63
2023/10/14 01:09:19;;;;;;;7.18;3.13;;;;;;;7.54;100.00;99602.63;4917486;29;20043;-65
2023/10/14 01:11:45;;;;;;;10.03;3.93;;;;;;;7.52;100.00;99586.03;4917337;29;20044;-67
2023/10/14 01:14:15;;;;;;;9.27;3.17;;;;;;;7.32;100.00;99530.00;4917357;29;20036;-65
2023/10/14 01:16:41;;;;;;;8.40;2.97;;;;;;;7.44;100.00;99532.09;4915948;29;20075;-63
2023/10/14 01:19:11;;;;;;;10.97;3.23;;;;;;;7.42;100.00;99525.31;4917483;29;20126;-66
2023/10/14 01:21:38;;;;;;;9.43;3.33;;;;;;;7.44;100.00;99520.69;4916085;29;20054;-69
2023/10/14 01:24:15;;;;;;;10.43;3.43;;;;;;;7.58;100.00;99522.63;4916318;29;20111;-65
2023/10/14 01:27:01;;;;;;;8.40;3.00;;;;;;;7.60;100.00;99525.91;4917517;29;20518;-63
2023/10/14 01:29:30;;;;;;;7.80;3.00;;;;;;;7.51;100.00;99484.53;4917339;29;20044;-68
2023/10/14 01:32:11;;;;;;;10.60;4.43;;;;;;;7.61;100.00;99492.28;4915688;29;20040;-65
2023/10/14 01:34:43;;;;;;;11.10;3.03;;;;;;;7.43;100.00;99463.41;4916236;29;20999;-68
2023/10/14 01:37:17;;;;;;;7.93;2.70;;;;;;;7.47;100.00;99470.00;4918306;29;20040;-67
2023/10/14 01:39:56;;;;;;;13.20;4.20;;;;;;;7.39;100.00;99460.28;4917542;29;20119;-64
2023/10/14 01:42:23;;;;;;;9.10;3.38;;;;;;;7.38;100.00;99468.41;4915427;29;20047;-66
2023/10/14 01:44:53;;;;;;;12.57;4.50;;;;;;;7.32;100.00;99455.88;4916847;29;20504;-65
2023/10/14 01:47:25;;;;;;;12.57;4.10;;;;;;;7.43;100.00;99450.16;4916824;29;20389;-65
2023/10/14 01:49:51;;;;;;;10.13;4.07;;;;;;;7.43;100.00;99439.56;4916755;29;20092;-66
2023/10/14 01:52:19;;;;;;;11.30;4.70;;;;;;;7.40;100.00;99424.03;4915652;29;20072;-63
2023/10/14 01:54:47;;;;;;;11.20;4.68;;;;;;;7.50;100.00;99419.31;4915136;29;20119;-67
2023/10/14 01:57:17;;;;;;;12.37;4.47;;;;;;;7.46;100.00;99407.44;4916833;29;20044;-67
2023/10/14 01:59:46;;;;;;;9.93;3.67;;;;;;;7.37;100.00;99393.41;4916647;29;20624;-66
2023/10/14 02:02:16;;;;;;;10.83;3.50;;;;;;;7.30;100.00;99387.19;4916528;29;20039;-68
2023/10/14 02:04:45;;;;;;;9.80;3.57;;;;;;;7.22;100.00;99373.97;4915987;29;20478;-68
2023/10/14 02:07:19;;;;;;;8.60;3.40;;;;;;;7.07;100.00;99344.78;4916104;29;20047;-63
2023/10/14 02:09:45;;;;;;;7.87;3.70;;;;;;;7.15;100.00;99331.47;4916285;29;20044;-67
2023/10/14 02:12:12;;;;;;;8.87;3.90;;;;;;;7.10;100.00;99317.97;4916131;29;20439;-67
2023/10/14 02:14:44;;;;;;;7.90;3.67;;;;;;;6.94;100.00;99303.97;4916931;29;20531;-66
2023/10/14 02:17:12;;;;;;;8.73;3.60;;;;;;;6.88;100.00;99297.56;4915038;29;20071;-64
2023/10/14 02:19:39;;;;;;;15.63;6.43;;;;;;;6.83;100.00;99279.56;4916251;29;20044;-64
2023/10/14 02:22:09;;;;;;;8.37;3.40;;;;;;;6.91;100.00;99270.75;4925393;29;20452;-66
2023/10/14 02:24:36;;;;;;;10.30;3.47;;;;;;;6.87;100.00;99264.16;4927731;29;20055;-64
2023/10/14 02:27:12;;;;;;;16.80;4.20;;;;;;;6.90;100.00;99258.53;4926746;29;20415;-65
2023/10/14 02:29:44;;;;;;;5.73;3.27;;;;;;;6.64;100.00;99210.41;4916511;29;20424;-64
2023/10/14 02:32:12;;;;;;;11.70;4.00;;;;;;;6.85;100.00;99226.47;4915423;29;20428;-66
2023/10/14 02:34:44;;;;;;;10.70;3.50;;;;;;;6.85;100.00;99210.59;4915792;29;20040;-66
2023/10/14 02:37:13;;;;;;;15.27;3.63;;;;;;;6.96;100.00;99255.19;4915670;29;20067;-65
2023/10/14 02:39:42;;;;;;;11.97;3.53;;;;;;;6.93;100.00;99237.00;4915552;29;20047;-65
2023/10/14 02:42:08;;;;;;;6.70;3.13;;;;;;;6.96;100.00;99236.66;4915775;29;20070;-66
2023/10/14 02:44:44;;;;;;;8.23;3.00;;;;;;;6.88;100.00;99239.34;4924087;29;20119;-67
2023/10/14 02:47:11;;;;;;;12.30;3.50;;;;;;;6.87;100.00;99250.94;4919675;29;20507;-64
2023/10/14 02:49:39;;;;;;;11.77;3.47;;;;;;;6.92;100.00;99261.81;4923530;29;20044;-67
2023/10/14 02:52:18;;;;;;;8.15;3.35;;;;;;;6.91;100.00;99265.47;4922028;29;20075;-67
2023/10/14 02:54:53;;;;;;;10.43;3.70;;;;;;;6.87;100.00;99244.81;4916474;29;20400;-64
2023/10/14 02:59:48;;;;;;;10.63;3.83;;;;;;;6.81;100.00;99202.19;4921764;29;20043;-64
2023/10/14 03:07:28;;;;;;;8.27;3.90;;;;;;;6.55;100.00;99121.53;4921770;29;20043;-65
2023/10/14 03:10:27;;;;;;;5.83;3.00;;;;;;;6.88;100.00;99172.38;4921925;29;20130;-69
2023/10/14 03:12:53;;;;;;;9.37;3.17;;;;;;;6.77;100.00;99153.28;4919442;29;20135;-67
2023/10/14 03:15:21;;;;;;;8.10;3.00;;;;;;;6.95;100.00;99165.41;4921784;29;20164;-66
2023/10/14 03:18:04;;;;;;;11.10;3.70;;;;;;;6.97;100.00;99156.28;4922231;29;20039;-67
2023/10/14 03:20:40;;;;;;;13.90;3.90;;;;;;;6.95;100.00;99147.69;4921968;29;20435;-63
2023/10/14 03:23:25;;;;;;;9.43;3.57;;;;;;;6.90;100.00;99133.31;4920507;29;20032;-64
2023/10/14 03:25:53;;;;;;;7.77;3.50;;;;;;;6.85;100.00;99115.34;4921747;29;20074;-65
2023/10/14 03:28:23;;;;;;;8.35;3.22;;;;;;;6.55;100.00;99058.06;4921417;29;20127;-63
2023/10/14 03:30:58;;;;;;;8.80;2.80;;;;;;;6.87;100.00;99099.28;4921328;29;20100;-65
2023/10/14 03:33:29;;;;;;;12.23;3.03;;;;;;;6.69;100.00;99049.34;4922333;29;20043;-65
2023/10/14 03:36:03;;;;;;;7.13;3.27;;;;;;;6.89;100.00;99068.97;4922309;29;20032;-68
2023/10/14 03:41:16;;;;;;;10.53;3.30;;;;;;;7.06;100.00;99077.59;4920975;29;20059;-67
2023/10/14 03:44:09;;;;;;;10.80;2.83;;;;;;;6.97;100.00;99046.94;4921798;29;20032;-66
2023/10/14 03:48:55;;;;;;;5.13;2.70;;;;;;;6.87;100.00;99004.84;4921034;29;20051;-63
2023/10/14 03:51:26;;;;;;;3.97;2.10;;;;;;;6.99;100.00;99011.34;4920387;29;20063;-66
2023/10/14 03:53:56;;;;;;;6.87;2.50;;;;;;;6.93;100.00;98988.22;4921432;29;20085;-67
2023/10/14 03:56:27;;;;;;;7.40;3.27;;;;;;;7.07;100.00;99013.88;4920180;29;20036;-65
2023/10/14 03:59:00;;;;;;;6.93;3.20;;;;;;;7.10;100.00;99005.59;4921016;29;20099;-65
2023/10/14 04:01:33;;;;;;;4.70;2.70;;;;;;;7.09;100.00;99003.94;4921298;29;20036;-63
2023/10/14 04:04:01;;;;;;;5.23;2.37;;;;;;;7.00;100.00;98978.56;4920987;29;20040;-63
2023/10/14 04:06:27;;;;;;;6.90;3.42;;;;;;;7.09;100.00;98984.59;4918928;29;20035;-66
2023/10/14 04:08:54;;;;;;;4.60;2.40;;;;;;;7.10;100.00;98967.69;4917724;29;20051;-67
2023/10/14 04:11:35;;;;;;;3.83;2.77;;;;;;;7.08;100.00;98965.25;4918168;29;20044;-63
2023/10/14 04:14:02;;;;;;;5.87;2.43;;;;;;;7.23;100.00;98977.63;4918310;29;20099;-63
2023/10/14 04:16:48;;;;;;;7.20;2.57;;;;;;;7.24;100.00;98947.53;4920174;29;20055;-66
2023/10/14 04:19:44;;;;;;;4.50;2.67;;;;;;;7.20;100.00;98940.94;4917288;29;20032;-68
2023/10/14 04:27:55;;;;;;;6.63;2.30;;;;;;;7.23;100.00;98946.69;4918919;29;20408;-64
2023/10/14 04:30:42;;;;;;;3.60;2.50;;;;;;;7.23;100.00;98929.97;4919239;29;20044;-66
2023/10/14 04:33:33;;;;;;;4.07;2.43;;;;;;;7.29;100.00;98930.06;4918778;29;20044;-67
2023/10/14 04:36:21;;;;;;;2.43;1.70;;;;;;;7.35;100.00;98934.63;4917401;29;20143;-68
2023/10/14 04:38:44;;;;;;;2.60;2.20;;;;;;;7.41;100.00;98928.56;4917994;29;20507;-66
2023/10/14 04:41:13;;;;;;;6.33;2.10;;;;;;;7.13;100.00;98859.63;4917515;29;20044;-66
2023/10/14 04:44:00;;;;;;;3.20;2.33;;;;;;;7.55;100.00;98913.66;4917535;29;20040;-65
2023/10/14 04:49:14;;;;;;;3.80;2.30;;;;;;;7.59;100.00;98888.41;4917519;29;20040;-64
2023/10/14 04:51:45;;;;;;;2.53;1.80;;;;;;;7.57;100.00;98874.53;4917719;29;20063;-69
2023/10/14 04:54:12;;;;;;;6.47;2.37;;;;;;;7.75;100.00;98890.78;4917617;29;20048;-64
2023/10/14 04:56:37;;;;;;;3.13;2.50;;;;;;;7.75;100.00;98872.25;4917484;29;20043;-66
2023/10/14 04:59:05;;;;;;;6.17;2.13;;;;;;;7.73;100.00;98868.97;4917497;29;20036;-66
2023/10/14 05:01:32;;;;;;;4.10;2.15;;;;;;;7.72;100.00;98855.91;4917623;29;20052;-68
2023/10/14 05:03:58;;;;;;;3.30;2.27;;;;;;;7.74;100.00;98852.06;4917442;29;20036;-66
2023/10/14 05:06:29;;;;;;;5.30;1.93;;;;;;;7.90;100.00;98858.13;4915887;29;20381;-64
2023/10/14 05:08:56;;;;;;;3.60;2.27;;;;;;;7.84;100.00;98853.59;4917477;29;20032;-69
2023/10/14 05:11:25;;;;;;;2.87;1.87;;;;;;;7.99;100.00;98868.38;4917252;29;20044;-67
2023/10/14 05:14:08;;;;;;;2.67;2.10;;;;;;;7.86;100.00;98830.38;4917364;29;20074;-67
2023/10/14 05:19:41;;;;;;;1.97;1.70;;;;;;;7.77;100.00;98803.97;4916896;29;20108;-65
2023/10/14 05:25:15;;;;;;;3.43;1.93;;;;;;;7.96;100.00;98809.63;4884773;29;20055;-67
2023/10/14 05:27:55;;;;;;;2.70;2.17;;;;;;;8.14;100.00;98828.53;4916946;29;20064;-68
2023/10/14 05:30:22;;;;;;;2.80;1.90;;;;;;;8.14;100.00;98833.84;4916953;29;20462;-63
2023/10/14 05:32:49;;;;;;;3.20;2.40;;;;;;;8.14;100.00;98817.94;4916669;29;20032;-66
2023/10/14 05:35:15;;;;;;;2.73;2.13;;;;;;;8.16;100.00;98797.34;4916962;29;20627;-67
2023/10/14 05:37:45;;;;;;;2.47;1.60;;;;;;;8.28;100.00;98814.31;4916473;29;20052;-65
2023/10/14 05:40:14;;;;;;;3.33;2.03;;;;;;;8.25;100.00;98790.84;4917817;29;20054;-66
2023/10/14 05:42:45;;;;;;;2.20;1.90;;;;;;;8.29;100.00;98784.13;4916865;29;20126;-66
2023/10/14 05:45:12;;;;;;;1.93;1.70;;;;;;;8.51;100.00;98815.91;4914291;29;20483;-64
2023/10/14 05:47:39;;;;;;;2.60;1.53;;;;;;;8.48;100.00;98808.34;4916078;29;20516;-66
2023/10/14 05:50:08;;;;;;;2.43;1.63;;;;;;;8.38;100.00;98774.22;4916092;29;20086;-63
2023/10/14 05:52:33;;;;;;;2.45;1.60;;;;;;;8.52;100.00;98798.97;4916668;29;20044;-66
2023/10/14 05:55:01;;;;;;;1.83;1.53;;;;;;;8.45;100.00;98776.91;4916829;29;20110;-65
2023/10/14 05:57:29;;;;;;;2.60;2.40;;;;;;;8.53;100.00;98782.03;4916619;29;20486;-68
2023/10/14 05:59:58;;;;;;;2.25;1.92;;;;;;;8.30;100.00;98750.47;4915115;29;20043;-67
2023/10/14 06:02:25;;;;;;;;;;;;;;;8.70;100.00;98799.28;4916325;29;20134;-66
2023/10/14 06:04:50;;;;;;;2.63;1.80;;;;;;;8.65;100.00;98772.50;4916053;29;20501;-66
2023/10/14 06:07:18;;;;;;;2.27;2.07;;;;;;;8.73;100.00;98780.28;4916288;29;20407;-65
2023/10/14 06:09:47;;;;;;;3.60;2.33;;;;;;;8.80;100.00;98781.13;4917216;29;20127;-66
2023/10/14 06:12:13;;;;;;;1.80;1.70;;;;;;;7.91;100.00;98642.41;4916495;29;20040;-65
2023/10/14 06:14:43;;;;;;;2.70;1.87;;;;;;;8.73;100.00;98752.94;4914562;29;20508;-62
2023/10/14 06:17:11;;;;;;;5.33;2.17;;;;;;;8.88;100.00;98775.63;4915925;29;20421;-65
2023/10/14 06:19:37;;;;;;;1.92;1.83;;;;;;;8.46;100.00;98706.94;4916966;29;20172;-62
2023/10/14 06:22:03;;;;;;;30.87;9.20;;;;;;;8.77;100.00;98738.25;4912297;29;20036;-63
2023/10/14 06:24:29;;;;;;;22.80;8.37;;;;;;;8.95;100.00;98752.56;4904770;29;20028;-63
2023/10/14 06:27:08;;;;;;;2.73;2.40;;;;;;;9.02;100.00;98757.91;4904984;29;20024;-63
2023/10/14 06:29:37;;;;;;;4.50;2.63;;;;;;;9.09;100.00;98752.59;4907622;29;20029;-64
2023/10/14 06:32:04;;;;;;;2.70;2.28;;;;;;;9.12;100.00;98752.19;4905398;29;20056;-62
2023/10/14 06:34:34;;;;;;;2.83;1.97;;;;;;;9.04;100.00;98728.50;4907662;29;20493;-65
2023/10/14 06:37:06;;;;;;;6.03;4.07;;;;;;;9.11;100.00;98724.84;4906596;29;20044;-64
2023/10/14 06:39:38;;;;;;;6.83;2.70;;;;;;;9.15;100.00;98727.91;4909912;29;20058;-65
2023/10/14 06:42:04;;;;;;;3.43;2.47;;;;;;;9.29;100.00;98735.69;4915654;29;20043;-68
2023/10/14 06:44:32;;;;;;;3.00;2.50;;;;;;;9.32;100.00;98731.81;4915822;29;20036;-65
2023/10/14 06:46:58;;;;;;;4.07;3.20;;;;;;;9.44;100.00;98750.59;4916162;29;20043;-63
2023/10/14 06:49:32;;;;;;;5.93;3.43;;;;;;;9.49;100.00;98754.28;4919617;29;20727;-64
2023/10/14 06:51:58;;;;;;;5.33;3.50;;;;;;;9.53;100.00;98749.34;4919097;29;20044;-61
2023/10/14 06:54:30;;;;;;;3.53;3.07;;;;;;;9.48;100.00;98736.69;4919322;29;20087;-63
2023/10/14 06:56:56;;;;;;;6.83;4.97;;;;;;;9.55;100.00;98750.81;4916310;29;20036;-64
2023/10/14 06:59:22;;;;;;;6.23;3.37;;;;;;;9.45;100.00;98713.19;4916537;29;20055;-63
2023/10/14 07:01:47;;;;;;;5.83;4.03;;;;;;;9.59;100.00;98736.09;4908621;29;20108;-64
2023/10/14 07:04:13;;;;;;;5.90;4.03;;;;;;;9.24;100.00;98662.94;4907491;29;20124;-64
2023/10/14 07:06:47;;;;;;;6.70;5.75;;;;;;;9.67;100.00;98726.28;4916096;29;20064;-63
2023/10/14 07:09:17;;;;;;;5.87;4.93;;;;;;;9.60;100.00;98711.16;4918430;29;20095;-67
2023/10/14 07:11:46;;;;;;;7.20;5.50;;;;;;;9.62;100.00;98706.44;4918011;29;20039;-69
2023/10/14 07:14:12;;;;;;;12.57;6.33;;;;;;;9.74;100.00;98716.44;4914963;29;20040;-63
2023/10/14 07:16:37;;;;;;;8.27;6.23;;;;;;;9.81;100.00;98725.22;4915415;29;20040;-66
2023/10/14 07:19:03;;;;;;;11.63;6.10;;;;;;;9.77;100.00;98713.38;4915438;29;20051;-70
2023/10/14 07:21:31;;;;;;;8.40;5.43;;;;;;;9.77;100.00;98713.38;4917148;29;20036;-68
2023/10/14 07:24:05;;;;;;;9.90;6.07;;;;;;;9.08;100.00;98581.03;4917019;29;20036;-65
2023/10/14 07:26:36;;;;;;;9.03;6.10;;;;;;;9.88;100.00;98704.78;4908261;29;20384;-63
2023/10/14 07:29:03;;;;;;;12.83;6.97;;;;;;;9.88;100.00;98707.44;4907528;29;20477;-65
2023/10/14 07:31:31;;;;;;;11.73;6.80;;;;;;;9.98;100.00;98721.09;4905227;29;20044;-67
2023/10/14 07:34:02;;;;;;;12.63;7.43;;;;;;;9.89;100.00;98690.44;4908533;29;20055;-66
2023/10/14 07:36:29;;;;;;;9.03;6.50;;;;;;;10.07;100.00;98709.19;4902633;29;20400;-66
2023/10/14 07:39:02;;;;;;;9.30;7.03;;;;;;;10.11;100.00;98702.44;4903869;29;20108;-65
2023/10/14 07:41:29;;;;;;;11.07;7.43;;;;;;;10.05;100.00;98692.63;4907149;29;20036;-65
2023/10/14 07:43:54;;;;;;;11.33;7.60;;;;;;;10.20;100.00;98687.94;4907392;29;20385;-66
2023/10/14 07:46:20;;;;;;;8.87;7.47;;;;;;;10.22;100.00;98669.91;4910562;29;20083;-64
2023/10/14 07:48:46;;;;;;;13.43;8.23;;;;;;;10.19;100.00;98658.84;4912736;29;20408;-64
2023/10/14 07:51:13;;;;;;;11.67;8.07;;;;;;;10.38;100.00;98689.06;4913296;29;20056;-62
2023/10/14 07:53:40;;;;;;;13.53;9.10;;;;;;;10.41;100.00;98672.69;4909002;29;20100;-65
2023/10/14 07:56:06;;;;;;;17.87;8.60;;;;;;;10.44;100.00;98659.78;4910536;29;20088;-66
2023/10/14 07:58:32;;;;;;;12.13;9.17;;;;;;;10.37;100.00;98636.88;4908981;29;20064;-66
2023/10/14 08:01:06;;;;;;;11.23;9.17;;;;;;;10.66;100.00;98675.41;4908871;29;20053;-68
2023/10/14 08:03:31;;;;;;;11.00;8.50;;;;;;;10.58;100.00;98651.72;4908685;29;20039;-63
2023/10/14 08:06:05;;;;;;;13.83;8.57;;;;;;;10.75;100.00;98669.63;4909876;29;20033;-64
2023/10/14 08:08:31;;;;;;;13.70;9.47;;;;;;;10.77;100.00;98654.25;4909462;29;20036;-64
2023/10/14 08:10:59;;;;;;;13.80;9.37;;;;;;;10.92;100.00;98650.47;4909467;29;20484;-64
2023/10/14 08:13:25;;;;;;;12.90;9.83;;;;;;;10.98;100.00;98649.59;4908167;29;20039;-67
2023/10/14 08:15:52;;;;;;;10.50;8.77;;;;;;;11.06;100.00;98636.03;4908012;29;20480;-67
2023/10/14 08:18:20;;;;;;;12.20;9.07;;;;;;;11.13;100.00;98620.81;4909042;29;21025;-66
2023/10/14 08:20:46;;;;;;;12.98;9.63;;;;;;;11.30;100.00;98640.53;4916970;29;20036;-67
2023/10/14 08:23:12;;;;;;;13.33;9.80;;;;;;;11.37;100.00;98645.81;4918478;29;20060;-66
2023/10/14 08:25:42;;;;;;;20.60;10.20;;;;;;;11.45;100.00;98640.19;4923088;29;20043;-66
2023/10/14 08:28:11;;;;;;;16.60;10.93;;;;;;;11.44;100.00;98627.91;4918520;29;20040;-66
2023/10/14 08:30:46;;;;;;;13.27;9.68;;;;;;;11.63;100.00;98655.41;4918182;29;20408;-70
2023/10/14 08:33:13;;;;;;;13.33;11.13;;;;;;;11.65;100.00;98634.66;4905423;29;20626;-67
2023/10/14 08:35:44;;;;;;;16.83;10.43;;;;;;;11.61;100.00;98626.28;4901393;29;20504;-68
2023/10/14 08:38:13;;;;;;;12.63;9.57;;;;;;;11.85;100.00;98642.47;4917816;29;20072;-67
2023/10/14 08:40:40;;;;;;;13.17;9.20;;;;;;;11.91;100.00;98637.06;4916620;29;20039;-69
2023/10/14 08:43:16;;;;;;;16.57;10.03;;;;;;;11.88;100.00;98604.72;4917802;29;20122;-68
2023/10/14 08:45:47;;;;;;;13.53;9.70;;;;;;;12.26;100.00;98639.13;4917688;29;20403;-68
2023/10/14 08:48:18;;;;;;;10.67;8.50;;;;;;;12.30;100.00;98632.28;4918036;29;20044;-66
2023/10/14 08:50:47;;;;;;;12.63;9.37;;;;;;;12.43;100.00;98636.63;4918001;29;20063;-67
2023/10/14 08:53:13;;;;;;;13.07;9.83;;;;;;;12.29;100.00;98602.09;4917032;29;20075;-67
2023/10/14 08:55:40;;;;;;;11.63;9.00;;;;;;;12.38;100.00;98605.28;4917601;29;20119;-65
2023/10/14 08:58:13;;;;;;;12.20;9.20;;;;;;;12.57;100.00;98625.53;4918111;29;20036;-65
2023/10/14 09:00:41;;;;;;;11.37;9.30;;;;;;;12.48;100.00;98594.88;4916658;29;20138;-69
2023/10/14 09:03:09;;;;;;;11.60;8.43;;;;;;;12.65;100.00;98622.53;4916462;29;20059;-68
2023/10/14 09:05:40;;;;;;;12.27;9.50;;;;;;;12.68;100.00;98613.25;4912217;29;20085;-66
2023/10/14 09:08:11;;;;;;;10.93;8.67;;;;;;;12.76;100.00;98618.28;4897969;29;20405;-66
2023/10/14 09:10:37;;;;;;;12.40;9.47;;;;;;;12.66;100.00;98581.44;4896675;29;20060;-66
2023/10/14 09:13:04;;;;;;;11.87;9.20;;;;;;;12.93;100.00;98615.75;4898787;29;20041;-65
2023/10/14 09:15:33;;;;;;;10.90;9.13;;;;;;;12.98;100.00;98610.53;4897281;29;20049;-64
2023/10/14 09:18:00;;;;;;;12.07;8.77;;;;;;;13.10;100.00;98613.25;4896948;29;20540;-64
2023/10/14 09:20:34;;;;;;;12.63;9.30;;;;;;;13.10;100.00;98602.53;4898216;29;20040;-67
2023/10/14 09:23:19;;;;;;;11.27;8.73;;;;;;;13.16;100.00;98602.44;4898148;29;20560;-67
2023/10/14 09:26:15;;;;;;;12.83;8.47;;;;;;;13.06;100.00;98578.16;4898441;29;20044;-67
2023/10/14 09:28:40;;;;;;;14.00;9.40;;;;;;;13.19;100.00;98590.50;4896455;29;20060;-67
2023/10/14 09:31:08;;;;;;;10.77;8.43;;;;;;;13.19;100.00;98598.50;4898114;29;20128;-68
2023/10/14 09:33:41;;;;;;;17.35;9.63;;;;;;;13.07;100.00;98587.78;4898396;29;20044;-66
2023/10/14 09:36:11;;;;;;;12.33;10.13;;;;;;;13.03;100.00;98584.78;4898259;29;20044;-66
2023/10/14 09:38:39;;;;;;;12.23;9.13;;;;;;;13.06;100.00;98572.81;4898160;29;20040;-69
2023/10/14 09:41:07;;;;;;;12.87;9.00;;;;;;;13.05;100.00;98581.88;4897811;29;20690;-64
2023/10/14 09:43:39;;;;;;;11.07;8.47;;;;;;;13.16;100.00;98597.09;4897701;29;20040;-65
2023/10/14 09:46:08;;;;;;;13.60;9.40;;;;;;;13.02;100.00;98569.78;4898260;29;20119;-64
2023/10/14 09:48:35;;;;;;;12.00;9.20;;;;;;;13.18;100.00;98589.69;4896675;29;20408;-70
2023/10/14 09:51:08;;;;;;;15.93;9.33;;;;;;;12.43;100.00;98453.25;4897566;29;20084;-67
2023/10/14 09:53:37;;;;;;;17.03;10.87;;;;;;;13.27;100.00;98561.53;4897689;29;20053;-65
2023/10/14 09:56:05;;;;;;;12.40;9.03;;;;;;;13.42;100.00;98571.78;4897572;29;20096;-64
2023/10/14 09:58:34;;;;;;;14.93;9.97;;;;;;;13.47;100.00;98557.69;4897701;29;20083;-66
2023/10/14 10:01:04;;;;;;;21.10;9.60;;;;;;;13.60;100.00;98562.81;4897495;29;20580;-64
2023/10/14 10:03:35;;;;;;;14.87;12.67;;;;;;;13.72;100.00;98568.94;4897748;29;20079;-66
2023/10/14 10:06:08;;;;;;;14.63;8.43;;;;;;;13.78;100.00;98572.53;4896730;29;20040;-66
2023/10/14 10:08:49;;;;;;;15.20;9.27;;;;;;;13.78;100.00;98570.66;4896252;29;20083;-64
2023/10/14 10:11:23;;;;;;;20.57;10.13;;;;;;;13.53;100.00;98527.34;4897651;29;20040;-65
2023/10/14 10:13:53;;;;;;;10.40;8.63;;;;;;;13.77;100.00;98560.19;4897595;29;20091;-66
2023/10/14 10:16:20;;;;;;;21.90;10.60;;;;;;;13.77;100.00;98554.84;4897478;29;20051;-65
2023/10/14 10:18:57;;;;;;;13.20;9.77;;;;;;;13.68;100.00;98535.69;4897242;29;20076;-65
2023/10/14 10:21:29;;;;;;;14.97;9.87;;;;;;;13.73;100.00;98533.13;4897756;29;20815;-66
2023/10/14 10:24:17;;;;;;;14.33;9.03;;;;;;;13.67;100.00;98519.88;4897450;29;20107;-66
2023/10/14 10:27:04;;;;;;;12.43;9.88;;;;;;;13.85;100.00;98546.44;4897155;29;20036;-65
2023/10/14 10:29:34;;;;;;;15.07;9.40;;;;;;;13.83;100.00;98535.97;4900400;29;20056;-65
2023/10/14 10:32:16;;;;;;;12.30;8.60;;;;;;;13.74;100.00;98501.81;4898909;29;20127;-64
2023/10/14 10:35:06;;;;;;;12.70;8.57;;;;;;;13.95;100.00;98533.28;4895819;29;20559;-67
2023/10/14 10:37:35;;;;;;;10.63;8.10;;;;;;;13.83;100.00;98511.91;4896903;29;20037;-66
2023/10/14 10:40:05;;;;;;;13.73;10.00;;;;;;;13.90;100.00;98509.09;4896911;29;20056;-64
2023/10/14 10:42:31;;;;;;;13.67;8.77;;;;;;;13.99;100.00;98514.88;4896979;29;20080;-66
2023/10/14 10:44:58;;;;;;;9.20;8.30;;;;;;;13.89;100.00;98499.47;4897105;29;20039;-65
2023/10/14 10:47:29;;;;;;;10.57;8.90;;;;;;;13.66;100.00;98457.56;4880460;29;20076;-66
2023/10/14 10:50:01;;;;;;;11.07;8.33;;;;;;;13.83;100.00;98476.31;4896617;29;20049;-66
2023/10/14 10:52:36;;;;;;;13.93;8.43;;;;;;;13.92;100.00;98482.91;4897030;29;20173;-66
2023/10/14 10:55:03;;;;;;;10.77;7.93;;;;;;;13.98;100.00;98483.81;4896881;29;20049;-65
2023/10/14 10:57:32;;;;;;;14.00;8.68;;;;;;;14.07;100.00;98480.50;4896906;29;20040;-67
2023/10/14 10:59:59;;;;;;;12.23;8.20;;;;;;;14.03;100.00;98454.47;4896690;29;20060;-65
2023/10/14 11:02:25;;;;;;;13.80;9.37;;;;;;;14.08;100.00;98460.72;4896562;29;20037;-65
2023/10/14 11:04:51;;;;;;;12.93;8.50;;;;;;;14.08;100.00;98443.84;4880119;29;20051;-66
2023/10/14 11:07:19;;;;;;;8.83;6.60;;;;;;;14.17;100.00;98443.22;4897359;29;20036;-65
2023/10/14 11:09:44;;;;;;;9.27;7.40;;;;;;;14.28;100.00;98460.25;4896779;29;20040;-65
2023/10/14 11:12:12;;;;;;;9.73;7.27;;;;;;;14.24;100.00;98438.53;4895503;29;20045;-64
2023/10/14 11:14:38;;;;;;;9.97;7.27;;;;;;;14.35;100.00;98452.88;4897009;29;20044;-65
2023/10/14 11:17:05;;;;;;;10.43;7.93;;;;;;;14.38;100.00;98444.34;4897668;29;20037;-66
2023/10/14 11:19:32;;;;;;;8.70;7.80;;;;;;;14.41;100.00;98449.22;4900571;29;20048;-67
2023/10/14 11:21:59;;;;;;;8.97;7.23;;;;;;;14.34;100.00;98445.09;4901166;29;20049;-66
2023/10/14 11:24:26;;;;;;;10.50;7.80;;;;;;;14.41;100.00;98448.41;4884351;29;20047;-64
2023/10/14 11:26:53;;;;;;;9.50;7.33;;;;;;;14.45;100.00;98449.56;4883994;29;20032;-65
2023/10/14 11:29:24;;;;;;;13.10;7.20;;;;;;;14.42;100.00;98434.78;4900582;29;20453;-66
2023/10/14 11:31:59;;;;;;;10.27;8.20;;;;;;;14.31;100.00;98416.13;4884023;29;20109;-67
2023/10/14 11:34:34;;;;;;;10.30;7.43;;;;;;;14.50;100.00;98433.59;4900758;29;20101;-69
2023/10/14 11:37:00;;;;;;;16.13;9.40;;;;;;;14.40;100.00;98410.09;4899483;29;20044;-68
2023/10/14 11:39:27;;;;;;;12.40;7.77;;;;;;;14.47;100.00;98426.06;4883738;29;20048;-67
2023/10/14 11:41:53;;;;;;;11.07;7.50;;;;;;;14.40;100.00;98414.66;4900488;29;20096;-69
2023/10/14 11:44:19;;;;;;;14.60;8.63;;;;;;;14.52;100.00;98407.41;4900146;29;20449;-68
2023/10/14 11:46:45;;;;;;;11.57;8.87;;;;;;;14.59;100.00;98415.25;4899408;29;20571;-67
2023/10/14 11:49:12;;;;;;;11.00;8.63;;;;;;;14.45;100.00;98387.97;4899954;29;20091;-66
2023/10/14 11:51:43;;;;;;;12.50;9.07;;;;;;;14.49;100.00;98392.63;4899895;29;20530;-68
2023/10/14 11:54:12;;;;;;;13.83;7.70;;;;;;;14.29;100.00;98352.13;4899565;29;20055;-68
2023/10/14 11:56:42;;;;;;;12.73;9.37;;;;;;;14.51;100.00;98369.09;4899370;29;20036;-67
2023/10/14 11:59:09;;;;;;;20.13;9.93;;;;;;;14.59;100.00;98383.09;4901062;29;20036;-66
2023/10/14 12:01:35;;;;;;;14.03;8.67;;;;;;;14.61;100.00;98365.72;4899601;29;20040;-68
2023/10/14 12:04:05;;;;;;;13.10;8.80;;;;;;;14.64;100.00;98389.34;4884097;29;20047;-68
2023/10/14 12:06:34;;;;;;;14.10;8.33;;;;;;;14.51;100.00;98369.09;4883814;29;20040;-66
2023/10/14 12:09:05;;;;;;;15.63;9.40;;;;;;;14.54;100.00;98371.28;4899838;29;20043;-67